ROMMA est une association bénévole à but non lucratif. Votre soutien est indispensable : ADHERER à ROMMA ou FAIRE un DON

Granges-lès-Beaumont - (26, Drôme)

Drôme des Collines (155 m)   Longitude: 04°58'E   Latitude: 45°03'N Station partenaire n°123
 

Détail journalier du     <<     >>

Température Precipitation Humidité Pression Vent Dir Rafale Dir. rafale Ensol.
Heure (°C) (mm) (%) (hPa) (km/h) (km/h) (min)
01:00 -0.2087102700---0
02:00 0.108710271---6NO0
03:00 -0.208710272NO6NO0
04:00 -0.208710265NO10NO0
05:00 -0.708610264N10NO0
06:00 -1.608710273N8N0
07:00 -0.908810279NNO18NNO0
08:00 -1.308810277NNE16NNO0
09:00 0.208710273NO13ONO10
10:00 1.7083102812NO21NO10
11:00 4.1075102811NNO23NNE0
12:00 5.9068102812NNO23NNE30
13:00 7.6064102715N29NNE60
14:00 8.2060102716N29NNE60
15:00 8.7058102717NNE29NE60
16:00 7.3061102718NNE32NE60
17:00 6.3068102717NNE27NNE60
18:00 4.4073102712NNE21NNE20
19:00 3.107610277NNE16NNE0
20:00 2.207910276NNO13NNO0
21:00 1.208310287NNO15NNO0
22:00 1.308310286NO15NO0
23:00 0.308510287NNE11ONO0
minuit 0.208410286ONO13ONO0

Graphique du 05-02-2019

 

Serveur OMMA